Time;durP1;ratioP1;P1;durP2;ratioP2;P2;SDS_P1;SDS_P2;PMS_P1;PMS_P2;Temp;Humidity;BMP_temperature;BMP_pressure;BME280_temperature;BME280_humidity;BME280_pressure;Samples;Min_cycle;Max_cycle;Signal;HPM_P1;HPM_P2
2023/12/30 00:02:35;;;;;;;12.98;3.15;;;;;;;9.17;100.00;100790.84;5089845;28;20039;-66
2023/12/30 00:05:25;;;;;;;14.00;3.55;;;;;;;9.16;100.00;100800.06;5121276;28;20048;-66
2023/12/30 00:08:13;;;;;;;15.35;3.10;;;;;;;9.14;100.00;100802.25;5114306;28;20407;-66
2023/12/30 00:11:01;;;;;;;14.80;3.40;;;;;;;9.11;100.00;100811.72;5107193;28;20064;-66
2023/12/30 00:13:49;;;;;;;12.77;2.95;;;;;;;9.11;100.00;100821.78;5085262;28;20048;-65
2023/12/30 00:16:39;;;;;;;10.23;3.25;;;;;;;9.08;100.00;100828.56;5113056;28;20389;-66
2023/12/30 00:19:27;;;;;;;12.05;3.25;;;;;;;9.05;100.00;100833.69;5113316;28;20044;-66
2023/12/30 00:22:15;;;;;;;8.40;3.00;;;;;;;9.04;100.00;100826.59;5101697;28;20048;-65
2023/12/30 00:25:04;;;;;;;11.40;3.30;;;;;;;9.04;100.00;100823.88;5113485;28;20051;-64
2023/12/30 00:27:53;;;;;;;14.75;3.13;;;;;;;9.03;100.00;100838.56;5098909;28;20488;-66
2023/12/30 00:30:41;;;;;;;13.75;3.35;;;;;;;9.00;100.00;100849.97;5102279;28;20067;-66
2023/12/30 00:33:29;;;;;;;10.50;3.10;;;;;;;8.99;100.00;100846.41;5088297;28;20042;-65
2023/12/30 00:36:19;;;;;;;9.50;2.85;;;;;;;8.99;100.00;100849.13;5098104;28;20078;-65
2023/12/30 00:39:07;;;;;;;12.98;3.50;;;;;;;8.99;100.00;100861.88;5104056;28;20133;-65
2023/12/30 00:41:55;;;;;;;11.57;3.15;;;;;;;8.96;100.00;100864.03;5085582;27;20183;-65
2023/12/30 00:44:43;;;;;;;10.32;2.78;;;;;;;8.96;100.00;100861.31;5102832;27;20047;-65
2023/12/30 00:47:31;;;;;;;11.80;3.08;;;;;;;8.98;100.00;100862.97;5106600;28;20044;-64
2023/12/30 00:50:19;;;;;;;10.48;2.97;;;;;;;8.94;100.00;100858.03;5091848;27;20039;-65
2023/12/30 00:53:07;;;;;;;12.55;2.97;;;;;;;8.91;100.00;100858.56;5117542;27;20047;-64
2023/12/30 00:55:56;;;;;;;9.85;2.95;;;;;;;8.93;100.00;100858.31;5104040;27;20047;-66
2023/12/30 00:58:44;;;;;;;14.02;3.10;;;;;;;8.94;100.00;100871.63;5132910;27;20118;-66
2023/12/30 01:01:32;;;;;;;11.43;3.15;;;;;;;8.91;100.00;100868.59;5110247;28;20134;-63
2023/12/30 01:04:20;;;;;;;12.02;3.03;;;;;;;8.88;100.00;100878.09;5109745;28;20075;-64
2023/12/30 01:07:09;;;;;;;11.23;3.33;;;;;;;8.85;100.00;100878.63;5112671;28;20051;-64
2023/12/30 01:09:57;;;;;;;13.38;2.95;;;;;;;8.87;100.00;100894.63;5098121;28;20047;-65
2023/12/30 01:12:45;;;;;;;12.57;3.55;;;;;;;8.84;100.00;100882.38;5115168;28;20404;-65
2023/12/30 01:15:34;;;;;;;13.13;3.13;;;;;;;8.82;100.00;100891.88;5116045;28;20130;-64
2023/12/30 01:18:24;;;;;;;11.48;3.42;;;;;;;8.79;100.00;100886.94;5128749;28;20047;-65
2023/12/30 01:21:13;;;;;;;15.00;3.80;;;;;;;8.79;100.00;100885.06;5078080;28;20382;-66
2023/12/30 01:24:01;;;;;;;10.38;3.00;;;;;;;8.78;100.00;100897.00;5095087;28;20059;-67
2023/12/30 01:26:49;;;;;;;5.88;2.55;;;;;;;8.78;100.00;100897.00;5099404;28;20125;-65
2023/12/30 01:29:37;;;;;;;12.30;3.35;;;;;;;8.80;100.00;100904.88;5133121;28;20084;-65
2023/12/30 01:32:25;;;;;;;12.02;3.70;;;;;;;8.79;100.00;100914.94;5077977;28;20066;-66
2023/12/30 01:35:15;;;;;;;15.18;3.28;;;;;;;8.80;100.00;100915.75;5077249;28;20048;-65
2023/12/30 01:38:03;;;;;;;9.85;3.30;;;;;;;8.79;100.00;100904.06;5103379;28;20396;-65
2023/12/30 01:40:55;;;;;;;11.00;2.88;;;;;;;8.78;100.00;100913.31;5109245;28;20052;-65
2023/12/30 01:43:43;;;;;;;8.13;2.80;;;;;;;8.77;100.00;100917.06;5096055;28;20048;-65
2023/12/30 01:46:32;;;;;;;12.32;3.20;;;;;;;8.75;100.00;100913.78;5096289;28;20127;-66
2023/12/30 01:49:20;;;;;;;10.35;2.88;;;;;;;8.74;100.00;100920.31;5083281;28;20051;-66
2023/12/30 01:52:08;;;;;;;10.13;3.00;;;;;;;8.76;100.00;100920.06;5091859;28;20039;-66
2023/12/30 01:54:56;;;;;;;11.57;3.22;;;;;;;8.72;100.00;100925.16;5111620;28;20047;-66
2023/12/30 01:57:45;;;;;;;11.07;2.67;;;;;;;8.71;100.00;100923.53;5114219;28;20055;-65
2023/12/30 02:00:34;;;;;;;12.65;2.92;;;;;;;8.71;100.00;100934.41;5115263;28;20051;-66
2023/12/30 02:03:22;;;;;;;15.40;3.35;;;;;;;8.70;100.00;100939.00;5093472;28;20507;-65
2023/12/30 02:06:10;;;;;;;10.52;3.30;;;;;;;8.70;100.00;100938.19;5094036;28;20098;-65
2023/12/30 02:08:58;;;;;;;11.00;3.55;;;;;;;8.70;100.00;100939.00;5094996;28;20102;-65
2023/12/30 02:11:47;;;;;;;11.18;3.53;;;;;;;8.68;100.00;100940.31;5093393;28;20123;-65
2023/12/30 02:14:35;;;;;;;11.18;3.50;;;;;;;8.67;100.00;100939.50;5105249;28;20043;-67
2023/12/30 02:17:23;;;;;;;12.40;3.20;;;;;;;8.68;100.00;100945.75;5097244;28;20044;-66
2023/12/30 02:20:11;;;;;;;11.73;3.22;;;;;;;8.65;100.00;100938.94;5106962;28;20514;-66
2023/12/30 02:22:59;;;;;;;12.32;3.83;;;;;;;8.64;100.00;100950.06;5092926;28;20054;-68
2023/12/30 02:25:48;;;;;;;15.05;3.70;;;;;;;8.63;100.00;100954.66;5093996;28;20098;-65
2023/12/30 02:28:37;;;;;;;13.80;3.60;;;;;;;8.61;100.00;100945.13;5099868;28;20047;-65
2023/12/30 02:31:24;;;;;;;12.57;3.30;;;;;;;8.61;100.00;100945.13;5114608;28;20511;-65
2023/12/30 02:34:14;;;;;;;12.18;3.58;;;;;;;8.58;100.00;100949.16;5107246;28;20052;-65
2023/12/30 02:37:03;;;;;;;12.15;3.53;;;;;;;8.57;100.00;100958.41;5085621;28;20492;-65
2023/12/30 02:39:51;;;;;;;12.20;3.28;;;;;;;8.59;100.00;100963.59;5094975;28;20047;-66
2023/12/30 02:42:40;;;;;;;12.68;3.80;;;;;;;8.59;100.00;100960.88;5079339;28;20433;-65
2023/12/30 02:45:28;;;;;;;12.15;3.72;;;;;;;8.58;100.00;100959.22;5113123;28;20055;-66
2023/12/30 02:48:16;;;;;;;10.15;3.33;;;;;;;8.60;100.00;100954.34;5113873;28;20066;-65
2023/12/30 02:51:04;;;;;;;12.20;3.10;;;;;;;8.59;100.00;100953.53;5099667;28;20137;-65
2023/12/30 02:53:52;;;;;;;12.07;3.35;;;;;;;8.60;100.00;100957.06;5115520;28;20411;-65
2023/12/30 02:56:41;;;;;;;15.50;3.85;;;;;;;8.59;100.00;100958.16;5119220;28;20043;-66
2023/12/30 02:59:29;;;;;;;14.07;3.30;;;;;;;8.57;100.00;100961.13;5119772;28;20039;-65
2023/12/30 03:02:17;;;;;;;16.83;3.60;;;;;;;8.56;100.00;100969.50;5105718;28;20596;-66
2023/12/30 03:05:06;;;;;;;14.50;4.05;;;;;;;8.55;100.00;100965.97;5124304;28;20047;-66
2023/12/30 03:07:57;;;;;;;8.90;3.10;;;;;;;8.51;100.00;100962.94;5115697;28;20043;-66
2023/12/30 03:10:45;;;;;;;13.40;3.63;;;;;;;8.51;100.00;100965.66;5078258;28;20059;-65
2023/12/30 03:13:34;;;;;;;13.18;3.75;;;;;;;8.51;100.00;100968.38;5106250;28;20074;-65
2023/12/30 03:16:22;;;;;;;11.82;3.65;;;;;;;8.51;100.00;100968.38;5113392;28;20054;-65
2023/12/30 03:19:10;;;;;;;11.85;3.17;;;;;;;8.52;100.00;100972.72;5114604;28;20416;-66
2023/12/30 03:21:58;;;;;;;10.82;3.45;;;;;;;8.50;100.00;100966.72;5112904;28;20417;-66
2023/12/30 03:24:46;;;;;;;10.85;3.30;;;;;;;8.48;100.00;100973.47;5099332;28;20036;-65
2023/12/30 03:27:35;;;;;;;13.60;3.45;;;;;;;8.48;100.00;100981.63;5113393;28;20046;-64
2023/12/30 03:30:23;;;;;;;14.55;4.00;;;;;;;8.47;100.00;100978.09;5111895;28;20044;-65
2023/12/30 03:33:11;;;;;;;14.80;4.05;;;;;;;8.47;100.00;100978.09;5113620;28;20044;-66
2023/12/30 03:36:00;;;;;;;11.90;3.63;;;;;;;8.48;100.00;100978.91;5086795;28;20136;-65
2023/12/30 03:38:49;;;;;;;11.32;3.28;;;;;;;8.46;100.00;100981.84;5113627;28;20043;-65
2023/12/30 03:41:37;;;;;;;14.65;3.88;;;;;;;8.48;100.00;100985.16;5111492;28;20050;-65
2023/12/30 03:44:25;;;;;;;17.55;4.53;;;;;;;8.47;100.00;100982.72;5112451;28;20051;-66
2023/12/30 03:47:13;;;;;;;13.05;3.67;;;;;;;8.44;100.00;100984.03;5112709;28;20407;-65
2023/12/30 03:50:03;;;;;;;11.88;3.25;;;;;;;8.44;100.00;100985.91;5113076;28;20422;-66
2023/12/30 03:52:52;;;;;;;12.65;3.40;;;;;;;8.45;100.00;100988.38;5100153;28;20036;-64
2023/12/30 03:55:40;;;;;;;13.82;4.20;;;;;;;8.41;100.00;100989.94;5078611;28;20144;-66
2023/12/30 03:58:28;;;;;;;14.00;3.35;;;;;;;8.38;100.00;100984.97;5093155;28;20172;-66
2023/12/30 04:01:16;;;;;;;15.35;3.83;;;;;;;8.38;100.00;100992.31;5113206;28;20125;-66
2023/12/30 04:04:04;;;;;;;13.20;3.72;;;;;;;8.36;100.00;100991.72;5109828;28;20047;-66
2023/12/30 04:06:52;;;;;;;13.70;3.45;;;;;;;8.33;100.00;100984.91;5112215;28;20075;-66
2023/12/30 04:09:40;;;;;;;13.55;3.45;;;;;;;8.32;100.00;100980.53;5095985;28;20051;-66
2023/12/30 04:12:31;;;;;;;13.82;3.92;;;;;;;8.31;100.00;100995.19;5110888;28;20051;-66
2023/12/30 04:15:21;;;;;;;17.70;4.07;;;;;;;8.31;100.00;100995.19;5112032;28;20043;-66
2023/12/30 04:18:09;;;;;;;15.05;3.45;;;;;;;8.28;100.00;100993.78;5111763;28;20419;-66
2023/12/30 04:20:57;;;;;;;14.57;3.92;;;;;;;8.27;100.00;101002.19;5111245;28;20048;-65
2023/12/30 04:23:45;;;;;;;13.48;3.60;;;;;;;8.28;100.00;101001.13;5103469;28;20036;-65
2023/12/30 04:26:34;;;;;;;18.08;4.63;;;;;;;8.27;100.00;100994.03;5105383;28;20044;-66
2023/12/30 04:29:22;;;;;;;16.10;4.00;;;;;;;8.25;100.00;100998.88;5111923;28;20126;-66
2023/12/30 04:32:11;;;;;;;10.82;3.42;;;;;;;8.23;100.00;100998.34;5112666;28;20089;-66
2023/12/30 04:34:59;;;;;;;12.70;3.63;;;;;;;8.22;100.00;100992.06;5109962;28;20047;-65
2023/12/30 04:37:47;;;;;;;13.63;3.15;;;;;;;8.21;100.00;100995.88;5111162;28;20130;-66
2023/12/30 04:40:35;;;;;;;18.20;3.78;;;;;;;8.21;100.00;100987.72;5111363;28;20043;-66
2023/12/30 04:43:23;;;;;;;13.07;3.63;;;;;;;8.20;100.00;100998.81;5111195;28;20051;-66
2023/12/30 04:46:13;;;;;;;15.35;3.75;;;;;;;8.19;100.00;101003.44;5089865;28;20047;-66
2023/12/30 04:49:02;;;;;;;15.88;3.97;;;;;;;8.20;100.00;101013.22;5097837;28;20496;-66
2023/12/30 04:51:52;;;;;;;10.80;2.90;;;;;;;8.20;100.00;101010.50;5110929;28;20129;-65
2023/12/30 04:54:42;;;;;;;12.48;3.35;;;;;;;8.18;100.00;101009.09;5109971;28;20058;-66
2023/12/30 04:57:31;;;;;;;13.50;3.97;;;;;;;8.15;100.00;101015.03;5111072;28;20054;-66
2023/12/30 05:00:19;;;;;;;12.75;3.17;;;;;;;8.16;100.00;101016.69;5111408;28;20130;-65
2023/12/30 05:03:10;;;;;;;14.25;3.58;;;;;;;8.14;100.00;101019.63;5095277;28;20048;-65
2023/12/30 05:05:58;;;;;;;13.57;3.58;;;;;;;8.13;100.00;101020.72;5089992;28;20044;-64
2023/12/30 05:08:47;;;;;;;13.45;3.50;;;;;;;8.14;100.00;101021.53;5103655;28;20051;-67
2023/12/30 05:11:35;;;;;;;12.57;3.03;;;;;;;8.14;100.00;101037.81;5107906;28;20519;-65
2023/12/30 05:14:23;;;;;;;16.27;3.58;;;;;;;8.14;100.00;101026.97;5095591;28;20094;-66
2023/12/30 05:17:11;;;;;;;11.15;3.63;;;;;;;8.12;100.00;101024.47;5091387;28;20519;-66
2023/12/30 05:19:59;;;;;;;13.18;3.85;;;;;;;8.13;100.00;101030.72;5105665;28;20556;-65
2023/12/30 05:22:47;;;;;;;15.27;3.72;;;;;;;8.10;100.00;101038.31;5125802;28;20054;-64
2023/12/30 05:25:35;;;;;;;12.77;3.95;;;;;;;8.09;100.00;101042.06;5122712;28;20043;-65
2023/12/30 05:28:23;;;;;;;13.07;3.45;;;;;;;8.09;100.00;101050.22;5113108;28;20047;-64
2023/12/30 05:31:11;;;;;;;14.25;3.78;;;;;;;8.10;100.00;101038.31;5122567;28;20048;-65
2023/12/30 05:33:59;;;;;;;17.52;4.22;;;;;;;8.10;100.00;101035.59;5121284;28;20051;-67
2023/12/30 05:36:47;;;;;;;12.40;3.85;;;;;;;8.10;100.00;101042.91;5104944;28;20055;-66
2023/12/30 05:39:36;;;;;;;14.40;4.00;;;;;;;8.07;100.00;101038.78;5116710;28;20054;-66
2023/12/30 05:42:24;;;;;;;15.90;3.65;;;;;;;8.06;100.00;101041.75;5116514;28;20469;-66
2023/12/30 05:45:12;;;;;;;15.02;3.80;;;;;;;8.07;100.00;101043.41;5112284;28;20040;-65
2023/12/30 05:48:02;;;;;;;11.90;3.38;;;;;;;8.06;100.00;101041.75;5115595;28;20578;-65
2023/12/30 05:50:50;;;;;;;13.25;3.67;;;;;;;8.01;100.00;101050.63;5114725;28;20039;-65
2023/12/30 05:53:41;;;;;;;18.92;4.97;;;;;;;7.99;100.00;101047.34;5117118;28;20130;-65
2023/12/30 05:56:29;;;;;;;14.15;4.07;;;;;;;7.99;100.00;101051.94;5122573;28;20511;-65
2023/12/30 05:59:17;;;;;;;13.98;3.70;;;;;;;7.97;100.00;101060.31;5123951;28;20044;-65
2023/12/30 06:02:05;;;;;;;17.98;3.88;;;;;;;7.97;100.00;101059.50;5102043;28;20051;-66
2023/12/30 06:04:53;;;;;;;14.43;4.00;;;;;;;7.96;100.00;101053.25;5126327;28;20430;-65
2023/12/30 06:07:41;;;;;;;15.85;4.15;;;;;;;7.98;100.00;101067.38;5118866;28;20055;-65
2023/12/30 06:10:29;;;;;;;13.35;3.40;;;;;;;7.97;100.00;101067.66;5116451;28;20056;-64
2023/12/30 06:13:17;;;;;;;15.07;4.03;;;;;;;7.97;100.00;101071.19;5114228;28;20048;-65
2023/12/30 06:16:08;;;;;;;12.30;3.97;;;;;;;7.93;100.00;101071.91;5094539;28;20388;-66
2023/12/30 06:18:56;;;;;;;16.83;4.30;;;;;;;7.89;100.00;101079.72;5080757;28;20048;-65
2023/12/30 06:21:44;;;;;;;19.40;4.10;;;;;;;7.89;100.00;101068.88;5094714;28;20043;-65
2023/12/30 06:24:35;;;;;;;17.98;4.45;;;;;;;7.89;100.00;101071.59;5094149;28;20103;-65
2023/12/30 06:27:23;;;;;;;21.15;4.13;;;;;;;7.82;100.00;101079.06;5094090;27;20040;-65
2023/12/30 06:30:11;;;;;;;17.33;4.05;;;;;;;7.81;100.00;101085.53;5113751;28;20105;-64
2023/12/30 06:33:06;;;;;;;15.10;4.07;;;;;;;7.82;100.00;101081.78;5114038;28;20051;-66
2023/12/30 06:35:54;;;;;;;14.70;3.83;;;;;;;7.81;100.00;101085.53;5114649;28;20039;-65
2023/12/30 06:38:42;;;;;;;16.20;3.90;;;;;;;7.82;100.00;101096.16;5112722;27;20640;-65
2023/12/30 06:41:30;;;;;;;16.73;4.10;;;;;;;7.81;100.00;101099.09;5073761;28;20544;-66
2023/12/30 06:44:18;;;;;;;15.05;3.90;;;;;;;7.80;100.00;101092.03;5093033;28;20412;-68
2023/12/30 06:47:06;;;;;;;17.67;4.07;;;;;;;7.80;100.00;101103.69;5079738;28;20043;-65
2023/12/30 06:49:55;;;;;;;14.93;4.00;;;;;;;7.81;100.00;101094.47;5079607;28;20506;-65
2023/12/30 06:52:43;;;;;;;14.73;3.72;;;;;;;7.81;100.00;101096.38;5126221;27;20039;-65
2023/12/30 06:55:31;;;;;;;12.85;4.05;;;;;;;7.77;100.00;101095.22;5125719;27;20054;-65
2023/12/30 06:58:29;;;;;;;14.13;3.72;;;;;;;7.78;100.00;101096.88;5099052;28;20419;-64
2023/12/30 07:01:24;;;;;;;16.52;4.15;;;;;;;7.78;100.00;101099.59;5099663;28;20097;-66
2023/12/30 07:04:13;;;;;;;13.43;3.72;;;;;;;7.80;100.00;101100.16;5113473;28;20118;-66
2023/12/30 07:07:01;;;;;;;13.90;3.78;;;;;;;7.80;100.00;101089.31;5099271;28;20130;-66
2023/12/30 07:09:50;;;;;;;18.63;4.70;;;;;;;7.76;100.00;101091.69;5114175;28;20051;-65
2023/12/30 07:12:38;;;;;;;20.77;4.45;;;;;;;7.75;100.00;101106.31;5113983;28;20062;-66
2023/12/30 07:15:26;;;;;;;21.70;4.35;;;;;;;7.75;100.00;101097.38;5111432;28;20075;-65
2023/12/30 07:18:14;;;;;;;19.20;5.20;;;;;;;7.71;100.00;101109.75;5113480;28;20130;-65
2023/12/30 07:21:02;;;;;;;20.55;4.60;;;;;;;7.64;100.00;101108.00;5114858;28;20153;-64
2023/12/30 07:23:50;;;;;;;21.10;4.50;;;;;;;7.63;100.00;101102.84;5071813;27;20063;-66
2023/12/30 07:26:38;;;;;;;18.45;4.20;;;;;;;7.62;100.00;101096.56;5072049;27;20714;-66
2023/12/30 07:29:26;;;;;;;22.23;4.78;;;;;;;7.64;100.00;101097.16;5103288;27;20067;-65
2023/12/30 07:32:14;;;;;;;19.77;4.70;;;;;;;7.64;100.00;101093.63;5104841;28;20550;-66
2023/12/30 07:35:03;;;;;;;18.23;4.25;;;;;;;7.71;100.00;101098.91;5108020;28;20103;-65
2023/12/30 07:37:51;;;;;;;19.13;4.35;;;;;;;7.68;100.00;101114.59;5085029;28;20058;-65
2023/12/30 07:40:39;;;;;;;16.27;4.00;;;;;;;7.65;100.00;101112.38;5099076;28;20135;-66
2023/12/30 07:43:27;;;;;;;18.33;4.22;;;;;;;7.61;100.00;101127.47;5091546;28;20514;-64
2023/12/30 07:46:16;;;;;;;18.30;5.18;;;;;;;7.60;100.00;101122.28;5113411;28;20114;-64
2023/12/30 07:49:03;;;;;;;16.52;4.30;;;;;;;7.60;100.00;101120.41;5111266;28;20051;-64
2023/12/30 07:51:53;;;;;;;17.48;3.97;;;;;;;7.62;100.00;101131.81;5092762;28;20077;-65
2023/12/30 07:54:41;;;;;;;16.55;4.10;;;;;;;7.61;100.00;101132.91;5088517;27;20050;-65
2023/12/30 07:57:29;;;;;;;19.33;4.20;;;;;;;7.58;100.00;101144.22;5133018;27;20050;-64
2023/12/30 08:00:17;;;;;;;15.93;3.97;;;;;;;7.58;100.00;101138.81;5133260;27;20092;-65
2023/12/30 08:03:05;;;;;;;17.20;4.40;;;;;;;7.57;100.00;101152.59;5076123;28;20411;-65
2023/12/30 08:05:53;;;;;;;19.70;4.90;;;;;;;7.58;100.00;101152.38;5095018;28;20051;-65
2023/12/30 08:08:42;;;;;;;17.63;4.22;;;;;;;7.58;100.00;101160.50;5116217;27;20043;-66
2023/12/30 08:11:30;;;;;;;18.50;4.35;;;;;;;7.60;100.00;101163.78;5133120;27;20065;-66
2023/12/30 08:14:26;;;;;;;20.02;4.57;;;;;;;7.60;100.00;101157.53;5120470;27;20050;-66
2023/12/30 08:17:14;;;;;;;16.00;4.07;;;;;;;7.60;100.00;101152.94;5132905;27;20185;-66
2023/12/30 08:20:03;;;;;;;16.90;4.57;;;;;;;7.61;100.00;101165.44;5097851;28;20048;-66
2023/12/30 08:22:51;;;;;;;17.63;4.07;;;;;;;7.62;100.00;101161.66;5113501;28;20115;-64
2023/12/30 08:25:39;;;;;;;16.55;4.60;;;;;;;7.65;100.00;101150.34;5113251;28;20062;-65
2023/12/30 08:28:27;;;;;;;17.35;3.95;;;;;;;7.68;100.00;101147.13;5113052;28;20043;-66
2023/12/30 08:31:15;;;;;;;17.83;4.68;;;;;;;7.72;100.00;101154.78;5104084;28;20500;-65
2023/12/30 08:34:03;;;;;;;20.50;4.47;;;;;;;7.71;100.00;101159.38;5097880;28;20041;-65
2023/12/30 08:36:51;;;;;;;17.60;3.90;;;;;;;7.73;100.00;101159.16;5112569;28;20051;-65
2023/12/30 08:39:39;;;;;;;18.80;4.55;;;;;;;7.72;100.00;101154.78;5113283;28;20514;-65
2023/12/30 08:42:34;;;;;;;16.20;4.55;;;;;;;7.74;100.00;101155.38;5086364;27;20485;-65
2023/12/30 08:45:22;;;;;;;17.75;3.75;;;;;;;7.75;100.00;101159.75;5133057;27;20057;-65
2023/12/30 08:48:10;;;;;;;16.98;3.80;;;;;;;7.75;100.00;101154.31;5133918;27;20046;-65
2023/12/30 08:50:58;;;;;;;17.08;4.22;;;;;;;7.77;100.00;101150.31;5117150;27;20093;-65
2023/12/30 08:53:46;;;;;;;17.52;4.00;;;;;;;7.80;100.00;101163.38;5129332;27;20389;-65
2023/12/30 08:56:34;;;;;;;20.48;4.93;;;;;;;7.77;100.00;101165.72;5097966;28;20075;-65
2023/12/30 08:59:23;;;;;;;17.30;4.03;;;;;;;7.76;100.00;101164.09;5099578;28;20059;-65
2023/12/30 09:02:10;;;;;;;20.95;4.53;;;;;;;7.75;100.00;101167.88;5092980;28;20044;-64
2023/12/30 09:04:58;;;;;;;13.82;4.65;;;;;;;7.77;100.00;101173.88;5104648;28;20379;-65
2023/12/30 09:07:51;;;;;;;21.88;4.68;;;;;;;7.78;100.00;101168.22;5102962;28;20071;-65
2023/12/30 09:10:39;;;;;;;17.40;4.40;;;;;;;7.79;100.00;101167.16;5105227;28;20056;-65
2023/12/30 09:13:27;;;;;;;18.05;5.00;;;;;;;7.78;100.00;101180.97;5096027;28;20051;-65
2023/12/30 09:16:15;;;;;;;21.27;5.28;;;;;;;7.77;100.00;101180.13;5086887;28;20519;-65
2023/12/30 09:19:03;;;;;;;22.45;4.95;;;;;;;7.81;100.00;101181.28;5090927;28;20344;-65
2023/12/30 09:21:52;;;;;;;26.40;4.45;;;;;;;7.83;100.00;101183.78;5098108;28;20055;-65
2023/12/30 09:24:41;;;;;;;22.10;5.20;;;;;;;7.81;100.00;101197.56;5091722;28;20047;-66
2023/12/30 09:27:29;;;;;;;16.13;4.63;;;;;;;7.80;100.00;101185.06;5076675;28;20514;-65
2023/12/30 09:30:17;;;;;;;22.58;4.88;;;;;;;7.81;100.00;101196.75;5085156;28;20125;-65
2023/12/30 09:33:05;;;;;;;18.77;4.85;;;;;;;7.82;100.00;101196.53;5086000;28;20051;-65
2023/12/30 09:35:58;;;;;;;21.00;4.75;;;;;;;7.85;100.00;101200.63;5087926;28;20044;-66
2023/12/30 09:38:46;;;;;;;18.08;4.88;;;;;;;7.84;100.00;101205.25;5063894;28;20059;-64
2023/12/30 09:41:36;;;;;;;19.00;4.65;;;;;;;7.83;100.00;101208.19;5059112;28;20605;-67
2023/12/30 09:44:25;;;;;;;19.38;4.63;;;;;;;7.83;100.00;101206.28;5094862;28;20044;-65
2023/12/30 09:47:13;;;;;;;23.70;5.45;;;;;;;7.86;100.00;101208.53;5104831;28;20049;-65
2023/12/30 09:50:03;;;;;;;20.50;4.85;;;;;;;7.89;100.00;101207.25;5113914;28;20501;-64
2023/12/30 09:52:51;;;;;;;20.23;4.35;;;;;;;7.92;100.00;101219.50;5117233;28;20063;-63
2023/12/30 09:55:39;;;;;;;18.00;4.85;;;;;;;7.94;100.00;101217.34;5110377;28;20085;-65
2023/12/30 09:58:27;;;;;;;15.90;3.92;;;;;;;7.99;100.00;101218.28;5115845;28;20052;-64
2023/12/30 10:01:16;;;;;;;15.85;4.50;;;;;;;8.01;100.00;101218.88;5091386;28;20047;-65
2023/12/30 10:04:04;;;;;;;22.73;5.68;;;;;;;8.07;100.00;101226.03;5109768;28;20051;-64
2023/12/30 10:06:52;;;;;;;12.30;4.03;;;;;;;8.08;100.00;101216.84;5068259;28;20054;-63
2023/12/30 10:09:41;;;;;;;16.50;4.90;;;;;;;8.11;100.00;101210.09;5075259;28;20423;-64
2023/12/30 10:12:29;;;;;;;17.95;4.30;;;;;;;8.13;100.00;101215.28;5090082;28;20062;-65
2023/12/30 10:15:17;;;;;;;25.08;5.47;;;;;;;8.18;100.00;101215.38;5101979;28;20039;-65
2023/12/30 10:18:07;;;;;;;21.83;5.88;;;;;;;8.22;100.00;101211.13;5122022;27;20096;-65
2023/12/30 10:20:55;;;;;;;18.25;5.20;;;;;;;8.21;100.00;101204.88;5093265;28;20043;-64
2023/12/30 10:23:43;;;;;;;17.42;5.47;;;;;;;8.25;100.00;101203.31;5100059;28;20047;-64
2023/12/30 10:26:37;;;;;;;15.82;4.68;;;;;;;8.21;100.00;101201.34;5097242;28;20040;-65
2023/12/30 10:29:25;;;;;;;23.40;6.50;;;;;;;8.24;100.00;101211.69;5100161;28;20054;-64
2023/12/30 10:32:20;;;;;;;16.42;4.88;;;;;;;8.21;100.00;101225.75;5105141;28;20055;-64
2023/12/30 10:35:08;;;;;;;16.60;5.30;;;;;;;8.24;100.00;101223.38;5098168;28;20518;-64
2023/12/30 10:37:57;;;;;;;20.75;4.75;;;;;;;8.23;100.00;101216.31;5099835;28;20043;-65
2023/12/30 10:40:45;;;;;;;17.40;5.20;;;;;;;8.26;100.00;101223.16;5094834;28;20102;-63
2023/12/30 10:43:34;;;;;;;20.48;5.40;;;;;;;8.33;100.00;101221.09;5108604;27;20048;-64
2023/12/30 10:46:26;;;;;;;24.80;6.45;;;;;;;8.39;100.00;101217.41;5101647;27;20088;-64
2023/12/30 10:49:17;;;;;;;14.98;4.70;;;;;;;8.39;100.00;101214.69;5051607;28;20333;-64
2023/12/30 10:52:09;;;;;;;16.15;4.93;;;;;;;8.39;100.00;101225.53;5092642;28;20048;-64
2023/12/30 10:55:09;;;;;;;23.08;6.45;;;;;;;8.39;100.00;101222.81;5082454;28;20035;-65
2023/12/30 10:58:03;;;;;;;17.98;4.95;;;;;;;8.45;100.00;101224.63;5099811;28;20047;-64
2023/12/30 11:00:56;;;;;;;17.83;5.05;;;;;;;8.47;100.00;101214.34;5099188;28;20044;-66
2023/12/30 11:03:44;;;;;;;19.35;5.50;;;;;;;8.49;100.00;101200.50;5115610;28;20059;-66
2023/12/30 11:06:44;;;;;;;24.48;6.50;;;;;;;8.59;100.00;101202.59;5099624;28;20047;-65
2023/12/30 11:09:33;;;;;;;16.88;5.25;;;;;;;8.62;100.00;101192.03;5099395;28;20134;-65
2023/12/30 11:12:21;;;;;;;17.38;5.20;;;;;;;8.59;100.00;101186.28;5100165;28;20052;-63
2023/12/30 11:15:29;;;;;;;17.48;5.88;;;;;;;8.74;100.00;101176.50;5099175;28;20048;-64
2023/12/30 11:18:46;;;;;;;18.10;4.95;;;;;;;8.67;100.00;101177.72;5115671;28;20085;-65
2023/12/30 11:21:35;;;;;;;22.27;5.28;;;;;;;8.77;100.00;101177.06;5074307;28;20523;-62
2023/12/30 11:24:24;;;;;;;20.65;5.50;;;;;;;8.79;100.00;101174.94;5086183;28;20135;-63
2023/12/30 11:27:12;;;;;;;20.85;5.78;;;;;;;8.82;100.00;101164.38;5065483;28;20051;-66
2023/12/30 11:30:00;;;;;;;18.65;5.35;;;;;;;8.77;100.00;101161.59;5092808;28;20508;-63
2023/12/30 11:32:48;;;;;;;18.33;5.20;;;;;;;8.72;100.00;101159.59;5078408;28;20197;-66
2023/12/30 11:35:36;;;;;;;24.80;5.50;;;;;;;8.57;100.00;101161.28;5080256;28;20165;-64
2023/12/30 11:38:24;;;;;;;23.58;5.80;;;;;;;8.51;100.00;101158.47;5094243;28;20072;-63
2023/12/30 11:41:12;;;;;;;25.23;5.75;;;;;;;8.51;100.00;101163.06;5078482;28;20102;-63
2023/12/30 11:44:03;;;;;;;17.45;5.10;;;;;;;8.53;100.00;101156.31;5078784;28;20040;-64
2023/12/30 11:46:51;;;;;;;17.17;4.28;;;;;;;8.66;100.00;101154.34;5093925;28;20084;-64
2023/12/30 11:49:40;;;;;;;21.17;5.53;;;;;;;8.74;100.00;101145.78;5079515;28;20052;-65
2023/12/30 11:52:28;;;;;;;19.67;4.80;;;;;;;8.79;100.00;101140.44;5059139;28;20044;-64
2023/12/30 11:55:17;;;;;;;24.10;6.25;;;;;;;8.87;100.00;101139.19;5067543;28;20071;-65
2023/12/30 11:58:05;;;;;;;14.65;4.32;;;;;;;8.83;100.00;101144.31;5072324;28;20407;-64
2023/12/30 12:00:54;;;;;;;18.45;4.53;;;;;;;8.81;100.00;101138.28;5082428;28;20542;-66
2023/12/30 12:03:42;;;;;;;19.30;5.30;;;;;;;8.86;100.00;101127.50;5098763;28;20059;-65
2023/12/30 12:06:31;;;;;;;19.40;5.20;;;;;;;8.92;100.00;101121.09;5105759;28;20048;-65
2023/12/30 12:09:19;;;;;;;21.73;5.45;;;;;;;8.90;100.00;101122.41;5106467;28;20050;-64
2023/12/30 12:12:07;;;;;;;20.50;5.65;;;;;;;8.86;100.00;101115.81;5101384;28;20062;-64
2023/12/30 12:14:56;;;;;;;26.10;5.47;;;;;;;8.88;100.00;101119.94;5113050;28;20084;-64
2023/12/30 12:17:44;;;;;;;18.55;5.22;;;;;;;8.99;100.00;101114.63;5110023;28;20059;-66
2023/12/30 12:20:41;;;;;;;22.02;5.70;;;;;;;9.14;100.00;101106.72;5078967;28;20044;-64
2023/12/30 12:23:31;;;;;;;16.45;5.00;;;;;;;9.08;100.00;101105.78;5107142;28;20052;-64
2023/12/30 12:26:20;;;;;;;19.88;4.80;;;;;;;8.98;100.00;101102.94;5092722;28;20046;-64
2023/12/30 12:29:09;;;;;;;15.50;4.43;;;;;;;8.97;100.00;101101.28;5077837;28;20104;-64
2023/12/30 12:31:57;;;;;;;17.63;5.50;;;;;;;9.15;100.00;101103.72;5092544;28;20138;-65
2023/12/30 12:34:46;;;;;;;16.83;4.50;;;;;;;9.18;100.00;101095.06;5114622;27;20494;-66
2023/12/30 12:37:35;;;;;;;15.25;4.45;;;;;;;9.12;100.00;101087.91;5084723;28;20058;-63
2023/12/30 12:40:24;;;;;;;20.40;4.45;;;;;;;9.12;100.00;101093.34;5098451;28;20071;-64
2023/12/30 12:43:12;;;;;;;14.75;4.13;;;;;;;9.23;100.00;101088.84;5070203;28;20504;-65
2023/12/30 12:46:01;;;;;;;15.13;4.40;;;;;;;9.33;100.00;101080.84;5112214;28;20058;-65
2023/12/30 12:48:49;;;;;;;14.75;4.28;;;;;;;9.47;100.00;101083.16;5112408;28;20058;-65
2023/12/30 12:51:38;;;;;;;16.15;4.50;;;;;;;9.31;100.00;101069.41;5076937;28;20177;-65
2023/12/30 12:54:29;;;;;;;13.02;3.90;;;;;;;9.43;100.00;101071.16;5099749;28;20054;-66
2023/12/30 12:57:17;;;;;;;15.65;4.85;;;;;;;9.63;100.00;101071.38;5086124;28;20518;-65